sensor_id;sensor_type;location;lat;lon;timestamp;pressure;altitude;pressure_sealevel;temperature;humidity
5954;BME280;3002;42.642;24.812;2023-03-15T00:00:47;95587.59;;;6.98;58.96
5954;BME280;3002;42.642;24.812;2023-03-15T00:03:12;95576.06;;;7.03;58.84
5954;BME280;3002;42.642;24.812;2023-03-15T00:05:43;95566.34;;;7.12;58.79
5954;BME280;3002;42.642;24.812;2023-03-15T00:08:08;95561.13;;;7.02;58.52
5954;BME280;3002;42.642;24.812;2023-03-15T00:10:34;95533.13;;;7.04;57.14
5954;BME280;3002;42.642;24.812;2023-03-15T00:12:59;95533.56;;;6.92;57.74
5954;BME280;3002;42.642;24.812;2023-03-15T00:15:25;95519.34;;;6.78;58.33
5954;BME280;3002;42.642;24.812;2023-03-15T00:17:50;95525.81;;;6.72;59.44
5954;BME280;3002;42.642;24.812;2023-03-15T00:20:16;95519.84;;;6.80;59.40
5954;BME280;3002;42.642;24.812;2023-03-15T00:22:44;95532.91;;;7.01;58.89
5954;BME280;3002;42.642;24.812;2023-03-15T00:25:10;95532.91;;;7.01;59.01
5954;BME280;3002;42.642;24.812;2023-03-15T00:27:35;95543.78;;;7.04;58.25
5954;BME280;3002;42.642;24.812;2023-03-15T00:30:01;95504.22;;;6.74;58.31
5954;BME280;3002;42.642;24.812;2023-03-15T00:32:26;95505.16;;;6.83;58.78
5954;BME280;3002;42.642;24.812;2023-03-15T00:34:52;95535.50;;;7.06;58.67
5954;BME280;3002;42.642;24.812;2023-03-15T00:37:19;95504.91;;;7.03;58.12
5954;BME280;3002;42.642;24.812;2023-03-15T00:39:48;95515.56;;;7.22;57.24
5954;BME280;3002;42.642;24.812;2023-03-15T00:42:13;95522.78;;;7.21;56.46
5954;BME280;3002;42.642;24.812;2023-03-15T00:44:45;95492.47;;;7.31;55.41
5954;BME280;3002;42.642;24.812;2023-03-15T00:47:11;95516.59;;;7.59;54.55
5954;BME280;3002;42.642;24.812;2023-03-15T00:49:38;95507.81;;;7.58;55.05
5954;BME280;3002;42.642;24.812;2023-03-15T00:52:05;95466.06;;;7.16;56.28
5954;BME280;3002;42.642;24.812;2023-03-15T00:54:30;95497.97;;;7.21;58.41
5954;BME280;3002;42.642;24.812;2023-03-15T00:57:00;95483.13;;;7.15;58.75
5954;BME280;3002;42.642;24.812;2023-03-15T00:59:30;95515.34;;;7.18;59.31
5954;BME280;3002;42.642;24.812;2023-03-15T01:02:04;95514.84;;;7.16;59.35
5954;BME280;3002;42.642;24.812;2023-03-15T01:04:30;95510.34;;;6.93;60.10
5954;BME280;3002;42.642;24.812;2023-03-15T01:06:56;95495.94;;;6.94;60.19
5954;BME280;3002;42.642;24.812;2023-03-15T01:09:21;95489.75;;;6.80;61.08
5954;BME280;3002;42.642;24.812;2023-03-15T01:11:47;95478.38;;;6.74;61.40
5954;BME280;3002;42.642;24.812;2023-03-15T01:14:12;95478.97;;;6.90;60.62
5954;BME280;3002;42.642;24.812;2023-03-15T01:16:38;95477.16;;;6.85;61.09
5954;BME280;3002;42.642;24.812;2023-03-15T01:19:03;95474.06;;;6.78;61.34
5954;BME280;3002;42.642;24.812;2023-03-15T01:21:29;95481.09;;;6.88;61.08
5954;BME280;3002;42.642;24.812;2023-03-15T01:23:54;95469.16;;;6.85;60.97
5954;BME280;3002;42.642;24.812;2023-03-15T01:26:21;95490.97;;;6.87;61.24
5954;BME280;3002;42.642;24.812;2023-03-15T01:28:46;95493.16;;;6.85;61.90
5954;BME280;3002;42.642;24.812;2023-03-15T01:31:21;95490.13;;;6.92;61.65
5954;BME280;3002;42.642;24.812;2023-03-15T01:33:47;95473.75;;;6.80;61.52
5954;BME280;3002;42.642;24.812;2023-03-15T01:36:12;95481.22;;;6.78;61.46
5954;BME280;3002;42.642;24.812;2023-03-15T01:38:38;95493.28;;;6.94;61.99
5954;BME280;3002;42.642;24.812;2023-03-15T01:41:04;95488.25;;;6.92;61.27
5954;BME280;3002;42.642;24.812;2023-03-15T01:43:31;95500.06;;;7.05;61.02
5954;BME280;3002;42.642;24.812;2023-03-15T01:51:12;95487.88;;;6.99;59.20
5954;BME280;3002;42.642;24.812;2023-03-15T01:53:43;95475.41;;;7.13;59.24
5954;BME280;3002;42.642;24.812;2023-03-15T01:56:11;95453.81;;;6.96;59.84
5954;BME280;3002;42.642;24.812;2023-03-15T01:58:39;95469.06;;;6.71;59.73
5954;BME280;3002;42.642;24.812;2023-03-15T02:01:07;95452.50;;;6.56;60.39
5954;BME280;3002;42.642;24.812;2023-03-15T02:03:38;95477.09;;;6.90;60.28
5954;BME280;3002;42.642;24.812;2023-03-15T02:06:14;95449.00;;;6.79;61.53
5954;BME280;3002;42.642;24.812;2023-03-15T02:08:45;95447.13;;;6.80;59.91
5954;BME280;3002;42.642;24.812;2023-03-15T02:11:15;95450.06;;;6.78;59.76
5954;BME280;3002;42.642;24.812;2023-03-15T02:13:42;95396.44;;;6.66;60.13
5954;BME280;3002;42.642;24.812;2023-03-15T02:16:08;95435.00;;;6.87;60.50
5954;BME280;3002;42.642;24.812;2023-03-15T02:18:33;95427.69;;;6.79;61.15
5954;BME280;3002;42.642;24.812;2023-03-15T02:23:26;95417.22;;;6.83;60.92
5954;BME280;3002;42.642;24.812;2023-03-15T02:28:26;95436.66;;;6.83;62.31
5954;BME280;3002;42.642;24.812;2023-03-15T02:30:52;95449.13;;;6.69;63.30
5954;BME280;3002;42.642;24.812;2023-03-15T02:33:20;95434.19;;;6.30;64.75
5954;BME280;3002;42.642;24.812;2023-03-15T02:35:46;95411.84;;;6.26;64.01
5954;BME280;3002;42.642;24.812;2023-03-15T02:38:12;95423.00;;;6.28;63.84
5954;BME280;3002;42.642;24.812;2023-03-15T02:40:37;95420.31;;;6.52;62.34
5954;BME280;3002;42.642;24.812;2023-03-15T02:43:12;95407.84;;;6.48;62.32
5954;BME280;3002;42.642;24.812;2023-03-15T02:45:40;95416.72;;;6.43;62.70
5954;BME280;3002;42.642;24.812;2023-03-15T02:48:06;95395.38;;;6.24;62.85
5954;BME280;3002;42.642;24.812;2023-03-15T02:50:33;95403.25;;;6.10;64.33
5954;BME280;3002;42.642;24.812;2023-03-15T02:52:59;95403.47;;;6.14;64.63
5954;BME280;3002;42.642;24.812;2023-03-15T02:55:27;95421.03;;;6.15;63.74
5954;BME280;3002;42.642;24.812;2023-03-15T02:57:53;95403.84;;;6.07;62.84
5954;BME280;3002;42.642;24.812;2023-03-15T03:00:18;95412.09;;;6.06;62.07
5954;BME280;3002;42.642;24.812;2023-03-15T03:02:45;95426.81;;;6.22;62.64
5954;BME280;3002;42.642;24.812;2023-03-15T03:05:13;95421.16;;;6.05;63.29
5954;BME280;3002;42.642;24.812;2023-03-15T03:07:39;95423.31;;;6.03;62.90
5954;BME280;3002;42.642;24.812;2023-03-15T03:10:13;95386.94;;;5.93;62.74
5954;BME280;3002;42.642;24.812;2023-03-15T03:12:40;95407.81;;;5.81;64.16
5954;BME280;3002;42.642;24.812;2023-03-15T03:15:06;95417.56;;;5.90;63.17
5954;BME280;3002;42.642;24.812;2023-03-15T03:17:32;95411.97;;;5.63;64.17
5954;BME280;3002;42.642;24.812;2023-03-15T03:20:05;95416.00;;;5.60;64.47
5954;BME280;3002;42.642;24.812;2023-03-15T03:22:35;95394.81;;;5.50;65.04
5954;BME280;3002;42.642;24.812;2023-03-15T03:25:01;95412.19;;;5.43;64.98
5954;BME280;3002;42.642;24.812;2023-03-15T03:27:28;95416.00;;;5.31;65.91
5954;BME280;3002;42.642;24.812;2023-03-15T03:29:53;95412.78;;;5.34;65.64
5954;BME280;3002;42.642;24.812;2023-03-15T03:32:19;95404.59;;;5.26;65.62
5954;BME280;3002;42.642;24.812;2023-03-15T03:34:45;95414.75;;;5.24;66.42
5954;BME280;3002;42.642;24.812;2023-03-15T03:37:18;95393.91;;;5.02;66.73
5954;BME280;3002;42.642;24.812;2023-03-15T03:39:44;95389.00;;;5.19;66.41
5954;BME280;3002;42.642;24.812;2023-03-15T03:42:10;95405.88;;;5.33;66.78
5954;BME280;3002;42.642;24.812;2023-03-15T03:44:36;95415.28;;;5.50;66.32
5954;BME280;3002;42.642;24.812;2023-03-15T03:47:01;95387.78;;;5.35;66.75
5954;BME280;3002;42.642;24.812;2023-03-15T03:49:27;95385.19;;;5.30;67.01
5954;BME280;3002;42.642;24.812;2023-03-15T03:51:53;95375.66;;;5.24;67.48
5954;BME280;3002;42.642;24.812;2023-03-15T03:54:18;95381.41;;;5.36;65.67
5954;BME280;3002;42.642;24.812;2023-03-15T03:56:47;95415.72;;;5.62;65.89
5954;BME280;3002;42.642;24.812;2023-03-15T03:59:13;95392.03;;;5.36;65.48
5954;BME280;3002;42.642;24.812;2023-03-15T04:01:38;95389.66;;;5.35;66.67
5954;BME280;3002;42.642;24.812;2023-03-15T04:04:04;95367.47;;;5.45;65.36
5954;BME280;3002;42.642;24.812;2023-03-15T04:06:29;95389.81;;;5.73;65.69
5954;BME280;3002;42.642;24.812;2023-03-15T04:08:55;95391.63;;;5.53;67.30
5954;BME280;3002;42.642;24.812;2023-03-15T04:11:21;95370.69;;;5.47;66.22
5954;BME280;3002;42.642;24.812;2023-03-15T04:13:53;95398.03;;;5.76;66.82
5954;BME280;3002;42.642;24.812;2023-03-15T04:16:19;95401.47;;;5.77;68.18
5954;BME280;3002;42.642;24.812;2023-03-15T04:18:45;95392.13;;;5.55;68.56
5954;BME280;3002;42.642;24.812;2023-03-15T04:21:11;95392.75;;;5.47;68.93
5954;BME280;3002;42.642;24.812;2023-03-15T04:23:37;95392.63;;;5.57;69.49
5954;BME280;3002;42.642;24.812;2023-03-15T04:26:03;95352.28;;;5.50;69.13
5954;BME280;3002;42.642;24.812;2023-03-15T04:28:30;95351.34;;;5.65;67.88
5954;BME280;3002;42.642;24.812;2023-03-15T04:30:56;95364.25;;;5.77;67.81
5954;BME280;3002;42.642;24.812;2023-03-15T04:33:26;95358.59;;;5.83;67.31
5954;BME280;3002;42.642;24.812;2023-03-15T04:35:52;95387.88;;;6.07;65.98
5954;BME280;3002;42.642;24.812;2023-03-15T04:38:18;95402.16;;;6.11;66.48
5954;BME280;3002;42.642;24.812;2023-03-15T04:40:43;95387.91;;;5.78;67.24
5954;BME280;3002;42.642;24.812;2023-03-15T04:43:09;95396.38;;;5.80;65.92
5954;BME280;3002;42.642;24.812;2023-03-15T04:45:35;95401.28;;;5.97;64.68
5954;BME280;3002;42.642;24.812;2023-03-15T04:48:01;95414.50;;;6.26;63.71
5954;BME280;3002;42.642;24.812;2023-03-15T04:50:27;95417.72;;;6.23;64.46
5954;BME280;3002;42.642;24.812;2023-03-15T04:52:53;95403.81;;;6.31;63.05
5954;BME280;3002;42.642;24.812;2023-03-15T04:55:19;95390.84;;;6.25;64.96
5954;BME280;3002;42.642;24.812;2023-03-15T04:57:44;95389.78;;;6.26;64.70
5954;BME280;3002;42.642;24.812;2023-03-15T05:00:10;95371.97;;;6.21;64.73
5954;BME280;3002;42.642;24.812;2023-03-15T05:02:38;95409.22;;;6.64;64.28
5954;BME280;3002;42.642;24.812;2023-03-15T05:05:09;95361.50;;;6.49;62.95
5954;BME280;3002;42.642;24.812;2023-03-15T05:07:36;95359.59;;;6.11;63.38
5954;BME280;3002;42.642;24.812;2023-03-15T05:10:02;95384.66;;;6.29;61.19
5954;BME280;3002;42.642;24.812;2023-03-15T05:12:27;95382.44;;;6.36;60.41
5954;BME280;3002;42.642;24.812;2023-03-15T05:14:53;95376.81;;;6.76;58.86
5954;BME280;3002;42.642;24.812;2023-03-15T05:17:19;95375.88;;;6.48;58.94
5954;BME280;3002;42.642;24.812;2023-03-15T05:19:47;95392.63;;;6.72;58.13
5954;BME280;3002;42.642;24.812;2023-03-15T05:22:13;95411.88;;;7.02;57.72
5954;BME280;3002;42.642;24.812;2023-03-15T05:24:38;95384.53;;;6.96;57.80
5954;BME280;3002;42.642;24.812;2023-03-15T05:27:05;95385.00;;;7.17;57.36
5954;BME280;3002;42.642;24.812;2023-03-15T05:29:30;95385.06;;;7.12;56.52
5954;BME280;3002;42.642;24.812;2023-03-15T05:31:56;95380.78;;;7.30;57.23
5954;BME280;3002;42.642;24.812;2023-03-15T05:34:21;95396.81;;;7.43;56.26
5954;BME280;3002;42.642;24.812;2023-03-15T05:36:49;95401.47;;;7.51;55.96
5954;BME280;3002;42.642;24.812;2023-03-15T05:39:16;95402.81;;;7.68;56.04
5954;BME280;3002;42.642;24.812;2023-03-15T05:41:42;95381.81;;;7.61;54.63
5954;BME280;3002;42.642;24.812;2023-03-15T05:44:08;95418.84;;;8.09;54.66
5954;BME280;3002;42.642;24.812;2023-03-15T05:46:33;95411.13;;;8.49;54.19
5954;BME280;3002;42.642;24.812;2023-03-15T05:48:59;95420.03;;;8.58;53.07
5954;BME280;3002;42.642;24.812;2023-03-15T05:51:25;95412.31;;;8.56;52.61
5954;BME280;3002;42.642;24.812;2023-03-15T05:53:51;95391.44;;;8.31;52.95
5954;BME280;3002;42.642;24.812;2023-03-15T05:56:16;95383.94;;;8.05;53.04
5954;BME280;3002;42.642;24.812;2023-03-15T05:58:41;95403.22;;;7.89;53.72
5954;BME280;3002;42.642;24.812;2023-03-15T06:01:07;95403.00;;;7.85;53.91
5954;BME280;3002;42.642;24.812;2023-03-15T06:03:33;95393.03;;;7.77;53.38
5954;BME280;3002;42.642;24.812;2023-03-15T06:05:58;95407.16;;;7.77;53.13
5954;BME280;3002;42.642;24.812;2023-03-15T06:08:24;95411.00;;;7.85;53.51
5954;BME280;3002;42.642;24.812;2023-03-15T06:10:50;95397.31;;;7.92;53.20
5954;BME280;3002;42.642;24.812;2023-03-15T06:13:15;95378.41;;;8.02;52.83
5954;BME280;3002;42.642;24.812;2023-03-15T06:15:41;95407.19;;;8.19;52.95
5954;BME280;3002;42.642;24.812;2023-03-15T06:18:07;95389.53;;;7.16;54.46
5954;BME280;3002;42.642;24.812;2023-03-15T06:20:33;95397.28;;;7.32;55.76
5954;BME280;3002;42.642;24.812;2023-03-15T06:22:58;95399.38;;;7.95;53.75
5954;BME280;3002;42.642;24.812;2023-03-15T06:25:24;95398.47;;;8.13;53.54
5954;BME280;3002;42.642;24.812;2023-03-15T06:27:49;95399.25;;;8.55;52.08
5954;BME280;3002;42.642;24.812;2023-03-15T06:30:15;95375.50;;;8.90;50.98
5954;BME280;3002;42.642;24.812;2023-03-15T06:32:41;95410.75;;;9.59;49.48
5954;BME280;3002;42.642;24.812;2023-03-15T06:35:06;95407.06;;;9.46;48.77
5954;BME280;3002;42.642;24.812;2023-03-15T06:37:33;95409.91;;;9.50;48.84
5954;BME280;3002;42.642;24.812;2023-03-15T06:40:01;95365.41;;;8.64;50.22
5954;BME280;3002;42.642;24.812;2023-03-15T06:42:28;95386.81;;;9.54;49.11
5954;BME280;3002;42.642;24.812;2023-03-15T06:44:53;95382.97;;;10.83;46.25
5954;BME280;3002;42.642;24.812;2023-03-15T06:47:19;95390.50;;;12.73;42.48
5954;BME280;3002;42.642;24.812;2023-03-15T06:49:44;95378.78;;;13.86;40.81
5954;BME280;3002;42.642;24.812;2023-03-15T06:52:14;95407.13;;;14.16;40.91
5954;BME280;3002;42.642;24.812;2023-03-15T06:54:40;95377.09;;;14.79;37.58
5954;BME280;3002;42.642;24.812;2023-03-15T06:57:05;95377.84;;;12.95;40.28
5954;BME280;3002;42.642;24.812;2023-03-15T06:59:30;95383.59;;;13.80;40.70
5954;BME280;3002;42.642;24.812;2023-03-15T07:01:56;95404.63;;;13.99;39.41
5954;BME280;3002;42.642;24.812;2023-03-15T07:04:21;95365.81;;;12.21;41.61
5954;BME280;3002;42.642;24.812;2023-03-15T07:06:47;95376.28;;;11.58;43.44
5954;BME280;3002;42.642;24.812;2023-03-15T07:09:12;95392.41;;;11.58;43.49
5954;BME280;3002;42.642;24.812;2023-03-15T07:11:38;95389.78;;;10.97;44.00
5954;BME280;3002;42.642;24.812;2023-03-15T07:14:03;95379.66;;;11.29;43.75
5954;BME280;3002;42.642;24.812;2023-03-15T07:16:30;95365.16;;;11.04;44.31
5954;BME280;3002;42.642;24.812;2023-03-15T07:18:55;95348.44;;;10.98;44.11
5954;BME280;3002;42.642;24.812;2023-03-15T07:21:23;95373.34;;;11.34;44.53
5954;BME280;3002;42.642;24.812;2023-03-15T07:23:49;95362.38;;;11.56;43.91
5954;BME280;3002;42.642;24.812;2023-03-15T07:26:14;95366.56;;;11.19;44.54
5954;BME280;3002;42.642;24.812;2023-03-15T07:28:40;95378.56;;;11.04;44.71
5954;BME280;3002;42.642;24.812;2023-03-15T07:31:06;95334.88;;;10.03;46.27
5954;BME280;3002;42.642;24.812;2023-03-15T07:33:33;95358.19;;;9.63;48.63
5954;BME280;3002;42.642;24.812;2023-03-15T07:36:00;95374.00;;;10.87;46.19
5954;BME280;3002;42.642;24.812;2023-03-15T07:38:28;95338.09;;;11.44;44.97
5954;BME280;3002;42.642;24.812;2023-03-15T07:40:54;95369.28;;;12.21;43.46
5954;BME280;3002;42.642;24.812;2023-03-15T07:43:20;95390.13;;;12.83;42.36
5954;BME280;3002;42.642;24.812;2023-03-15T07:45:46;95382.53;;;13.27;41.55
5954;BME280;3002;42.642;24.812;2023-03-15T07:48:12;95398.25;;;14.40;39.45
5954;BME280;3002;42.642;24.812;2023-03-15T07:50:38;95388.59;;;16.32;36.86
5954;BME280;3002;42.642;24.812;2023-03-15T07:53:05;95365.56;;;16.38;35.42
5954;BME280;3002;42.642;24.812;2023-03-15T07:55:34;95387.78;;;15.56;36.77
5954;BME280;3002;42.642;24.812;2023-03-15T07:58:03;95365.81;;;15.58;36.15
5954;BME280;3002;42.642;24.812;2023-03-15T08:00:34;95359.19;;;15.27;36.94
5954;BME280;3002;42.642;24.812;2023-03-15T08:02:59;95365.41;;;14.75;38.12
5954;BME280;3002;42.642;24.812;2023-03-15T08:05:25;95375.13;;;14.64;38.00
5954;BME280;3002;42.642;24.812;2023-03-15T08:07:50;95358.66;;;14.81;37.65
5954;BME280;3002;42.642;24.812;2023-03-15T08:10:17;95376.50;;;15.38;37.12
5954;BME280;3002;42.642;24.812;2023-03-15T08:12:43;95335.28;;;15.13;36.82
5954;BME280;3002;42.642;24.812;2023-03-15T08:15:12;95354.47;;;16.12;36.02
5954;BME280;3002;42.642;24.812;2023-03-15T08:17:39;95360.22;;;15.50;37.54
5954;BME280;3002;42.642;24.812;2023-03-15T08:20:06;95349.13;;;15.12;38.55
5954;BME280;3002;42.642;24.812;2023-03-15T08:22:38;95355.09;;;15.61;37.05
5954;BME280;3002;42.642;24.812;2023-03-15T08:25:04;95350.97;;;17.13;35.76
5954;BME280;3002;42.642;24.812;2023-03-15T08:27:30;95313.97;;;17.40;34.10
5954;BME280;3002;42.642;24.812;2023-03-15T08:29:55;95332.13;;;17.59;34.06
5954;BME280;3002;42.642;24.812;2023-03-15T08:32:21;95329.03;;;18.03;33.85
5954;BME280;3002;42.642;24.812;2023-03-15T08:34:46;95312.47;;;18.34;32.88
5954;BME280;3002;42.642;24.812;2023-03-15T08:37:12;95293.59;;;18.98;31.74
5954;BME280;3002;42.642;24.812;2023-03-15T08:39:38;95304.69;;;19.53;31.64
5954;BME280;3002;42.642;24.812;2023-03-15T08:42:04;95302.66;;;18.26;32.84
5954;BME280;3002;42.642;24.812;2023-03-15T08:44:31;95291.53;;;18.08;33.19
5954;BME280;3002;42.642;24.812;2023-03-15T08:46:56;95286.25;;;18.42;33.41
5954;BME280;3002;42.642;24.812;2023-03-15T08:49:22;95252.16;;;18.18;32.48
5954;BME280;3002;42.642;24.812;2023-03-15T08:51:47;95270.22;;;18.90;32.00
5954;BME280;3002;42.642;24.812;2023-03-15T08:54:13;95262.06;;;17.61;33.38
5954;BME280;3002;42.642;24.812;2023-03-15T08:56:39;95288.63;;;19.04;32.25
5954;BME280;3002;42.642;24.812;2023-03-15T08:59:06;95284.47;;;21.05;29.65
5954;BME280;3002;42.642;24.812;2023-03-15T09:01:32;95299.06;;;21.45;29.21
5954;BME280;3002;42.642;24.812;2023-03-15T09:03:59;95297.94;;;20.69;29.36
5954;BME280;3002;42.642;24.812;2023-03-15T09:06:25;95294.97;;;20.99;29.82
5954;BME280;3002;42.642;24.812;2023-03-15T09:08:51;95298.44;;;22.19;28.92
5954;BME280;3002;42.642;24.812;2023-03-15T09:11:18;95270.50;;;21.21;28.74
5954;BME280;3002;42.642;24.812;2023-03-15T09:13:44;95253.75;;;19.09;31.42
5954;BME280;3002;42.642;24.812;2023-03-15T09:16:09;95225.72;;;19.02;30.86
5954;BME280;3002;42.642;24.812;2023-03-15T09:18:34;95250.50;;;17.87;32.62
5954;BME280;3002;42.642;24.812;2023-03-15T09:21:00;95236.97;;;18.13;33.13
5954;BME280;3002;42.642;24.812;2023-03-15T09:23:26;95246.25;;;17.01;33.82
5954;BME280;3002;42.642;24.812;2023-03-15T09:25:51;95253.53;;;17.17;33.96
5954;BME280;3002;42.642;24.812;2023-03-15T09:28:17;95253.22;;;18.40;33.16
5954;BME280;3002;42.642;24.812;2023-03-15T09:30:42;95251.03;;;19.46;31.82
5954;BME280;3002;42.642;24.812;2023-03-15T09:33:08;95266.91;;;20.88;29.95
5954;BME280;3002;42.642;24.812;2023-03-15T09:35:34;95272.69;;;20.79;29.59
5954;BME280;3002;42.642;24.812;2023-03-15T09:37:59;95219.81;;;20.25;30.37
5954;BME280;3002;42.642;24.812;2023-03-15T09:40:28;95259.06;;;20.79;29.47
5954;BME280;3002;42.642;24.812;2023-03-15T09:48:36;95271.88;;;19.32;30.53
5954;BME280;3002;42.642;24.812;2023-03-15T09:53:59;95260.53;;;20.08;30.20
5954;BME280;3002;42.642;24.812;2023-03-15T09:56:29;95237.19;;;20.07;30.28
5954;BME280;3002;42.642;24.812;2023-03-15T09:58:58;95244.38;;;21.05;28.98
5954;BME280;3002;42.642;24.812;2023-03-15T10:01:34;95227.22;;;20.21;30.37
5954;BME280;3002;42.642;24.812;2023-03-15T10:06:42;95245.34;;;21.67;28.75
5954;BME280;3002;42.642;24.812;2023-03-15T10:09:14;95254.81;;;20.93;30.56
5954;BME280;3002;42.642;24.812;2023-03-15T10:12:04;95238.78;;;20.73;30.22
5954;BME280;3002;42.642;24.812;2023-03-15T10:17:25;95236.31;;;21.37;31.92
5954;BME280;3002;42.642;24.812;2023-03-15T10:19:58;95238.97;;;21.20;31.12
5954;BME280;3002;42.642;24.812;2023-03-15T10:22:37;95228.78;;;18.66;32.64
5954;BME280;3002;42.642;24.812;2023-03-15T10:25:12;95238.44;;;20.16;32.21
5954;BME280;3002;42.642;24.812;2023-03-15T10:27:51;95237.31;;;20.90;32.06
5954;BME280;3002;42.642;24.812;2023-03-15T10:30:29;95237.13;;;21.70;30.94
5954;BME280;3002;42.642;24.812;2023-03-15T10:33:29;95225.31;;;21.09;32.00
5954;BME280;3002;42.642;24.812;2023-03-15T10:35:56;95191.81;;;20.25;32.40
5954;BME280;3002;42.642;24.812;2023-03-15T10:38:23;95205.34;;;18.25;34.74
5954;BME280;3002;42.642;24.812;2023-03-15T10:43:19;95195.28;;;18.55;34.37
5954;BME280;3002;42.642;24.812;2023-03-15T10:48:27;95143.28;;;19.72;32.53
5954;BME280;3002;42.642;24.812;2023-03-15T10:50:54;95177.06;;;19.67;32.27
5954;BME280;3002;42.642;24.812;2023-03-15T10:53:21;95175.19;;;18.63;33.41
5954;BME280;3002;42.642;24.812;2023-03-15T10:55:57;95155.25;;;18.49;32.75
5954;BME280;3002;42.642;24.812;2023-03-15T10:58:26;95166.75;;;18.08;33.92
5954;BME280;3002;42.642;24.812;2023-03-15T11:01:04;95135.22;;;17.24;35.68
5954;BME280;3002;42.642;24.812;2023-03-15T11:03:33;95136.56;;;17.60;34.93
5954;BME280;3002;42.642;24.812;2023-03-15T11:05:59;95166.09;;;17.65;35.42
5954;BME280;3002;42.642;24.812;2023-03-15T11:08:38;95170.44;;;16.24;38.58
5954;BME280;3002;42.642;24.812;2023-03-15T11:11:05;95168.91;;;16.62;38.69
5954;BME280;3002;42.642;24.812;2023-03-15T11:13:33;95161.59;;;17.04;37.36
5954;BME280;3002;42.642;24.812;2023-03-15T11:21:25;95170.59;;;16.89;38.43
5954;BME280;3002;42.642;24.812;2023-03-15T11:23:53;95197.56;;;17.47;36.92
5954;BME280;3002;42.642;24.812;2023-03-15T11:26:25;95163.34;;;18.15;35.61
5954;BME280;3002;42.642;24.812;2023-03-15T11:28:58;95184.28;;;17.42;37.46
5954;BME280;3002;42.642;24.812;2023-03-15T11:31:27;95179.72;;;18.22;36.36
5954;BME280;3002;42.642;24.812;2023-03-15T11:34:04;95175.34;;;18.44;36.20
5954;BME280;3002;42.642;24.812;2023-03-15T11:36:32;95158.91;;;18.03;36.88
5954;BME280;3002;42.642;24.812;2023-03-15T11:39:02;95153.22;;;18.42;36.48
5954;BME280;3002;42.642;24.812;2023-03-15T11:47:02;95159.22;;;18.25;36.57
5954;BME280;3002;42.642;24.812;2023-03-15T11:49:55;95141.38;;;18.24;36.35
5954;BME280;3002;42.642;24.812;2023-03-15T11:52:23;95111.34;;;17.56;37.29
5954;BME280;3002;42.642;24.812;2023-03-15T11:54:49;95141.38;;;16.59;38.93
5954;BME280;3002;42.642;24.812;2023-03-15T11:59:54;95116.81;;;17.10;38.79
5954;BME280;3002;42.642;24.812;2023-03-15T12:04:49;95125.72;;;18.47;37.19
5954;BME280;3002;42.642;24.812;2023-03-15T12:09:50;95142.59;;;19.38;35.98
5954;BME280;3002;42.642;24.812;2023-03-15T12:17:42;95120.59;;;17.78;38.19
5954;BME280;3002;42.642;24.812;2023-03-15T12:20:19;95137.09;;;16.97;39.85
5954;BME280;3002;42.642;24.812;2023-03-15T12:23:03;95132.50;;;17.01;39.56
5954;BME280;3002;42.642;24.812;2023-03-15T12:25:37;95102.50;;;16.87;40.41
5954;BME280;3002;42.642;24.812;2023-03-15T12:28:22;95103.16;;;16.42;41.54
5954;BME280;3002;42.642;24.812;2023-03-15T12:30:53;95087.91;;;15.24;43.26
5954;BME280;3002;42.642;24.812;2023-03-15T12:33:56;95137.03;;;16.55;41.62
5954;BME280;3002;42.642;24.812;2023-03-15T12:36:37;95127.63;;;16.88;41.16
5954;BME280;3002;42.642;24.812;2023-03-15T12:41:50;95145.81;;;15.74;44.02
5954;BME280;3002;42.642;24.812;2023-03-15T12:44:22;95121.56;;;15.78;44.51
5954;BME280;3002;42.642;24.812;2023-03-15T12:52:03;95130.06;;;15.13;46.96
5954;BME280;3002;42.642;24.812;2023-03-15T12:54:44;95139.13;;;14.89;47.47
5954;BME280;3002;42.642;24.812;2023-03-15T12:57:12;95112.28;;;15.44;46.27
5954;BME280;3002;42.642;24.812;2023-03-15T12:59:50;95145.97;;;15.82;45.84
5954;BME280;3002;42.642;24.812;2023-03-15T13:02:27;95139.13;;;16.23;45.38
5954;BME280;3002;42.642;24.812;2023-03-15T13:08:24;95127.03;;;15.31;47.42
5954;BME280;3002;42.642;24.812;2023-03-15T13:16:16;95153.59;;;15.13;47.29
5954;BME280;3002;42.642;24.812;2023-03-15T13:21:35;95142.69;;;15.41;46.74
5954;BME280;3002;42.642;24.812;2023-03-15T13:24:22;95119.97;;;15.10;47.49
5954;BME280;3002;42.642;24.812;2023-03-15T13:26:55;95136.25;;;14.54;49.16
5954;BME280;3002;42.642;24.812;2023-03-15T13:29:29;95138.78;;;15.07;48.24
5954;BME280;3002;42.642;24.812;2023-03-15T13:32:10;95139.91;;;14.90;48.38
5954;BME280;3002;42.642;24.812;2023-03-15T13:35:10;95145.44;;;14.25;50.96
5954;BME280;3002;42.642;24.812;2023-03-15T13:37:36;95139.13;;;14.33;50.14
5954;BME280;3002;42.642;24.812;2023-03-15T13:40:11;95142.91;;;14.44;49.96
5954;BME280;3002;42.642;24.812;2023-03-15T13:42:40;95099.59;;;14.25;50.14
5954;BME280;3002;42.642;24.812;2023-03-15T13:45:14;95139.19;;;14.77;49.41
5954;BME280;3002;42.642;24.812;2023-03-15T13:47:44;95105.41;;;14.39;50.05
5954;BME280;3002;42.642;24.812;2023-03-15T13:50:18;95133.22;;;14.56;49.71
5954;BME280;3002;42.642;24.812;2023-03-15T13:52:45;95139.78;;;14.86;49.16
5954;BME280;3002;42.642;24.812;2023-03-15T13:55:14;95139.31;;;15.12;48.63
5954;BME280;3002;42.642;24.812;2023-03-15T13:57:40;95113.94;;;14.69;49.50
5954;BME280;3002;42.642;24.812;2023-03-15T14:00:14;95133.88;;;14.25;51.18
5954;BME280;3002;42.642;24.812;2023-03-15T14:02:51;95133.22;;;14.56;49.74
5954;BME280;3002;42.642;24.812;2023-03-15T14:05:22;95125.94;;;14.44;49.79
5954;BME280;3002;42.642;24.812;2023-03-15T14:08:19;95136.06;;;14.91;48.86
5954;BME280;3002;42.642;24.812;2023-03-15T14:11:30;95126.94;;;13.71;51.39
5954;BME280;3002;42.642;24.812;2023-03-15T14:13:58;95145.91;;;13.75;51.86
5954;BME280;3002;42.642;24.812;2023-03-15T14:16:38;95140.50;;;13.87;51.91
5954;BME280;3002;42.642;24.812;2023-03-15T14:19:24;95152.44;;;13.37;52.56
5954;BME280;3002;42.642;24.812;2023-03-15T14:21:52;95084.84;;;13.66;51.13
5954;BME280;3002;42.642;24.812;2023-03-15T14:24:47;95122.81;;;14.42;49.70
5954;BME280;3002;42.642;24.812;2023-03-15T14:27:22;95130.59;;;14.31;49.92
5954;BME280;3002;42.642;24.812;2023-03-15T14:29:56;95148.50;;;14.24;50.38
5954;BME280;3002;42.642;24.812;2023-03-15T14:32:36;95143.34;;;14.75;49.60
5954;BME280;3002;42.642;24.812;2023-03-15T14:38:23;95111.78;;;14.19;49.81
5954;BME280;3002;42.642;24.812;2023-03-15T14:40:50;95145.56;;;13.88;51.97